createdAt,value
2022-07-26T00:01:01.552Z,27.99
2022-07-26T00:03:29.358Z,27.82
2022-07-26T00:05:57.155Z,27.56
2022-07-26T00:08:24.842Z,27.59
2022-07-26T00:10:53.077Z,27.56
2022-07-26T00:13:21.738Z,27.52
2022-07-26T00:15:52.750Z,27.49
2022-07-26T00:18:20.787Z,27.44
2022-07-26T00:20:51.612Z,27.28
2022-07-26T00:23:19.787Z,27.34
2022-07-26T00:25:47.526Z,27.15
2022-07-26T00:28:15.378Z,27.09
2022-07-26T00:30:43.323Z,27.18
2022-07-26T00:33:11.034Z,26.98
2022-07-26T00:35:38.802Z,26.88
2022-07-26T00:38:06.446Z,26.68
2022-07-26T00:40:35.538Z,26.69
2022-07-26T00:43:03.539Z,26.59
2022-07-26T00:45:31.185Z,26.32
2022-07-26T00:47:58.835Z,26.29
2022-07-26T00:50:26.738Z,26.26
2022-07-26T00:52:55.259Z,26.46
2022-07-26T00:55:22.991Z,26.23
2022-07-26T00:57:52.095Z,26.25
2022-07-26T01:00:23.781Z,26.09
2022-07-26T01:02:51.757Z,26.08
2022-07-26T01:05:19.611Z,26.10
2022-07-26T01:07:48.636Z,26.09
2022-07-26T01:10:16.447Z,26.14
2022-07-26T01:12:44.589Z,26.14
2022-07-26T01:15:14.594Z,25.99
2022-07-26T01:17:43.176Z,25.92
2022-07-26T01:20:13.103Z,25.82
2022-07-26T01:22:41.579Z,25.84
2022-07-26T01:25:09.800Z,25.88
2022-07-26T01:27:39.748Z,25.96
2022-07-26T01:30:10.570Z,26.00
2022-07-26T01:32:38.847Z,26.13
2022-07-26T01:35:08.181Z,26.00
2022-07-26T01:37:36.103Z,25.87
2022-07-26T01:40:04.780Z,25.84
2022-07-26T01:42:33.462Z,25.93
2022-07-26T01:45:01.148Z,25.84
2022-07-26T01:47:29.009Z,25.81
2022-07-26T01:49:56.710Z,25.76
2022-07-26T01:52:24.350Z,25.75
2022-07-26T01:54:52.144Z,25.72
2022-07-26T01:57:19.890Z,25.74
2022-07-26T01:59:47.602Z,25.90
2022-07-26T02:02:15.322Z,25.93
2022-07-26T02:05:02.073Z,25.98
2022-07-26T02:07:32.593Z,25.98
2022-07-26T02:10:00.984Z,25.88
2022-07-26T02:12:28.797Z,25.85
2022-07-26T02:14:56.498Z,25.76
2022-07-26T02:17:24.288Z,25.65
2022-07-26T02:19:52.484Z,25.66
2022-07-26T02:22:20.455Z,25.72
2022-07-26T02:24:49.120Z,25.73
2022-07-26T02:27:17.345Z,25.67
2022-07-26T02:29:45.549Z,25.62
2022-07-26T02:32:13.487Z,25.61
2022-07-26T02:34:41.362Z,25.60
2022-07-26T02:37:09.081Z,25.54
2022-07-26T02:39:36.745Z,25.57
2022-07-26T02:42:04.630Z,25.53
2022-07-26T02:44:32.392Z,25.47
2022-07-26T02:47:00.164Z,25.47
2022-07-26T02:49:27.996Z,25.34
2022-07-26T02:51:55.704Z,25.33
2022-07-26T02:54:24.036Z,25.30
2022-07-26T02:56:51.994Z,25.21
2022-07-26T02:59:19.748Z,25.33
2022-07-26T03:01:47.584Z,25.31
2022-07-26T03:04:15.412Z,25.35
2022-07-26T03:06:43.109Z,25.36
2022-07-26T03:09:11.017Z,25.32
2022-07-26T03:11:38.888Z,25.36
2022-07-26T03:14:06.922Z,25.25
2022-07-26T03:16:35.112Z,25.36
2022-07-26T03:19:02.897Z,25.33
2022-07-26T03:21:30.633Z,25.27
2022-07-26T03:23:58.352Z,25.33
2022-07-26T03:26:26.088Z,25.29
2022-07-26T03:28:54.016Z,25.40
2022-07-26T03:31:23.600Z,25.34
2022-07-26T03:33:51.430Z,25.13
2022-07-26T03:36:19.158Z,25.22
2022-07-26T03:38:46.863Z,25.36
2022-07-26T03:41:14.742Z,25.36
2022-07-26T03:43:42.447Z,25.23
2022-07-26T03:46:10.265Z,25.12
2022-07-26T03:48:38.123Z,24.93
2022-07-26T03:51:05.990Z,24.77
2022-07-26T03:53:34.696Z,24.72
2022-07-26T03:56:21.517Z,24.62
2022-07-26T03:58:49.365Z,24.65
2022-07-26T04:01:17.611Z,24.70
2022-07-26T04:03:47.698Z,24.68
2022-07-26T04:06:16.384Z,24.68
2022-07-26T04:08:44.331Z,24.87
2022-07-26T04:11:12.189Z,24.79
2022-07-26T04:13:40.169Z,24.83
2022-07-26T04:16:08.141Z,24.78
2022-07-26T04:18:35.859Z,24.81
2022-07-26T04:21:04.392Z,24.83
2022-07-26T04:23:32.113Z,25.40
2022-07-26T04:25:59.849Z,25.87
2022-07-26T04:28:29.109Z,26.18
2022-07-26T04:30:59.010Z,26.32
2022-07-26T04:33:27.621Z,26.48
2022-07-26T04:35:55.386Z,26.57
2022-07-26T04:38:23.115Z,26.58
2022-07-26T04:40:52.199Z,26.46
2022-07-26T04:43:20.096Z,26.51
2022-07-26T04:45:48.367Z,26.68
2022-07-26T04:48:16.601Z,26.74
2022-07-26T04:50:44.468Z,26.84
2022-07-26T04:53:12.223Z,26.81
2022-07-26T04:55:40.948Z,26.73
2022-07-26T04:58:10.131Z,26.78
2022-07-26T05:00:56.786Z,26.84
2022-07-26T05:03:26.196Z,26.68
2022-07-26T05:05:53.942Z,26.61
2022-07-26T05:08:21.747Z,26.62
2022-07-26T05:10:55.223Z,26.69
2022-07-26T05:13:30.459Z,26.78
2022-07-26T05:16:00.100Z,26.84
2022-07-26T05:18:31.619Z,26.89
2022-07-26T05:21:12.072Z,27.17
2022-07-26T05:23:39.807Z,27.41
2022-07-26T05:26:07.558Z,27.58
2022-07-26T05:28:35.298Z,27.71
2022-07-26T05:31:03.227Z,27.50
2022-07-26T05:33:31.137Z,27.50
2022-07-26T05:35:58.865Z,27.61
2022-07-26T05:38:27.591Z,27.67
2022-07-26T05:40:55.641Z,27.61
2022-07-26T05:43:23.413Z,27.58
2022-07-26T05:45:51.493Z,27.74
2022-07-26T05:48:19.313Z,27.78
2022-07-26T05:50:47.568Z,27.87
2022-07-26T05:53:17.785Z,27.98
2022-07-26T05:55:45.513Z,28.09
2022-07-26T05:58:13.439Z,28.19
2022-07-26T06:00:45.346Z,28.24
2022-07-26T06:03:25.938Z,28.42
2022-07-26T06:05:56.871Z,28.36
2022-07-26T06:08:26.189Z,28.32
2022-07-26T06:10:55.143Z,28.33
2022-07-26T06:13:23.752Z,28.31
2022-07-26T06:15:52.023Z,28.47
2022-07-26T06:18:20.007Z,28.60
2022-07-26T06:20:48.516Z,28.72
2022-07-26T06:23:16.319Z,28.95
2022-07-26T06:25:44.207Z,29.02
2022-07-26T06:28:12.026Z,29.12
2022-07-26T06:30:40.069Z,29.06
2022-07-26T06:33:09.658Z,29.15
2022-07-26T06:35:39.328Z,29.18
2022-07-26T06:38:07.643Z,29.12
2022-07-26T06:40:36.265Z,29.02
2022-07-26T06:43:05.147Z,29.12
2022-07-26T06:45:34.235Z,29.05
2022-07-26T06:48:02.086Z,29.15
2022-07-26T06:50:29.865Z,29.09
2022-07-26T06:52:57.667Z,29.31
2022-07-26T06:55:25.450Z,29.36
2022-07-26T06:57:53.161Z,29.44
2022-07-26T07:00:21.243Z,29.59
2022-07-26T07:02:49.016Z,29.60
2022-07-26T07:05:16.879Z,29.42
2022-07-26T07:07:45.311Z,29.61
2022-07-26T07:10:14.236Z,29.72
2022-07-26T07:12:44.825Z,29.63
2022-07-26T07:15:12.795Z,29.78
2022-07-26T07:17:40.517Z,29.76
2022-07-26T07:20:08.609Z,29.95
2022-07-26T07:22:36.300Z,29.84
2022-07-26T07:25:06.220Z,29.88
2022-07-26T07:27:34.137Z,29.72
2022-07-26T07:30:02.823Z,30.02
2022-07-26T07:32:32.048Z,30.00
2022-07-26T07:34:59.827Z,30.15
2022-07-26T07:37:27.558Z,30.12
2022-07-26T07:40:15.521Z,30.21
2022-07-26T07:42:43.323Z,30.27
2022-07-26T07:45:11.784Z,30.32
2022-07-26T07:47:39.598Z,30.32
2022-07-26T07:50:07.896Z,30.42
2022-07-26T07:52:35.819Z,30.52
2022-07-26T07:55:37.024Z,30.58
2022-07-26T07:57:51.818Z,30.56
2022-07-26T08:00:27.427Z,30.56
2022-07-26T08:02:55.538Z,30.76
2022-07-26T08:05:23.339Z,30.90
2022-07-26T08:07:52.606Z,30.97
2022-07-26T08:10:20.583Z,31.22
2022-07-26T08:12:51.277Z,31.16
2022-07-26T08:15:19.618Z,31.38
2022-07-26T08:17:54.819Z,31.38
2022-07-26T08:20:23.469Z,31.32
2022-07-26T08:22:51.750Z,31.41
2022-07-26T08:25:19.991Z,31.63
2022-07-26T08:28:03.299Z,31.78
2022-07-26T08:30:31.740Z,31.81
2022-07-26T08:32:59.717Z,31.86
2022-07-26T08:35:29.645Z,32.09
2022-07-26T08:37:58.085Z,32.03
2022-07-26T08:40:26.006Z,32.21
2022-07-26T08:42:56.353Z,32.33
2022-07-26T08:45:25.731Z,32.52
2022-07-26T08:48:16.093Z,32.58
2022-07-26T08:50:42.350Z,32.61
2022-07-26T08:53:12.137Z,32.78
2022-07-26T08:56:05.278Z,32.79
2022-07-26T08:58:28.031Z,32.81
2022-07-26T09:01:13.039Z,32.76
2022-07-26T09:03:42.761Z,32.75
2022-07-26T09:06:14.321Z,32.93
2022-07-26T09:08:43.092Z,32.92
2022-07-26T09:11:25.821Z,33.03
2022-07-26T09:13:56.673Z,33.11
2022-07-26T09:16:24.885Z,33.28
2022-07-26T09:18:53.340Z,33.32
2022-07-26T09:21:31.176Z,33.39
2022-07-26T09:23:59.862Z,33.40
2022-07-26T09:26:28.615Z,33.38
2022-07-26T09:29:07.104Z,33.43
2022-07-26T09:31:36.749Z,33.48
2022-07-26T09:34:06.425Z,33.71
2022-07-26T09:36:50.913Z,33.83
2022-07-26T09:39:33.362Z,33.76
2022-07-26T09:44:58.051Z,33.84
2022-07-26T09:47:39.655Z,33.79
2022-07-26T09:50:16.910Z,33.91
2022-07-26T09:53:09.225Z,34.09
2022-07-26T09:55:55.817Z,34.14
2022-07-26T09:58:24.699Z,34.22
2022-07-26T10:00:52.418Z,34.30
2022-07-26T10:03:20.108Z,34.31
2022-07-26T10:05:47.897Z,34.39
2022-07-26T10:08:15.728Z,34.39
2022-07-26T10:10:50.450Z,34.34
2022-07-26T10:13:18.516Z,34.50
2022-07-26T10:15:51.598Z,34.54
2022-07-26T10:18:38.266Z,34.63
2022-07-26T10:21:29.806Z,34.57
2022-07-26T10:23:59.695Z,34.64
2022-07-26T10:26:36.413Z,34.78
2022-07-26T10:29:16.589Z,35.01
2022-07-26T10:32:05.418Z,35.03
2022-07-26T10:34:38.636Z,34.99
2022-07-26T10:37:12.105Z,34.82
2022-07-26T10:39:39.841Z,34.85
2022-07-26T10:42:10.650Z,34.93
2022-07-26T10:44:42.098Z,35.26
2022-07-26T10:47:15.674Z,35.46
2022-07-26T10:49:50.577Z,35.97
2022-07-26T10:52:21.156Z,36.14
2022-07-26T10:55:00.069Z,36.03
2022-07-26T10:57:27.762Z,36.24
2022-07-26T10:59:57.607Z,36.51
2022-07-26T11:02:32.636Z,36.35
2022-07-26T11:05:03.688Z,36.54
2022-07-26T11:07:32.113Z,36.41
2022-07-26T11:10:01.331Z,36.57
2022-07-26T11:12:29.137Z,36.84
2022-07-26T11:14:56.816Z,37.03
2022-07-26T11:17:29.408Z,36.86
2022-07-26T11:19:58.030Z,37.15
2022-07-26T11:22:33.469Z,36.64
2022-07-26T11:25:01.454Z,36.65
2022-07-26T11:27:29.496Z,36.68
2022-07-26T11:30:06.269Z,37.14
2022-07-26T11:32:34.138Z,37.35
2022-07-26T11:35:07.039Z,37.34
2022-07-26T11:37:34.830Z,36.84
2022-07-26T11:40:02.618Z,37.02
2022-07-26T11:42:30.494Z,37.41
2022-07-26T11:44:58.454Z,37.51
2022-07-26T11:47:26.802Z,37.90
2022-07-26T11:50:14.242Z,37.91
2022-07-26T11:52:42.918Z,37.85
2022-07-26T11:55:10.682Z,37.54
2022-07-26T11:57:38.607Z,37.57
2022-07-26T12:00:07.197Z,37.38
2022-07-26T12:02:41.157Z,37.83
2022-07-26T12:05:21.507Z,37.75
2022-07-26T12:08:03.045Z,37.23
2022-07-26T12:10:31.100Z,36.94
2022-07-26T12:13:10.705Z,36.91
2022-07-26T12:15:49.516Z,36.64
2022-07-26T12:18:28.865Z,36.72
2022-07-26T12:21:05.138Z,35.99
2022-07-26T12:23:44.156Z,36.42
2022-07-26T12:26:23.456Z,36.89
2022-07-26T12:28:51.696Z,36.70
2022-07-26T12:31:29.591Z,36.92
2022-07-26T12:33:58.124Z,36.54
2022-07-26T12:36:29.479Z,36.65
2022-07-26T12:39:00.967Z,36.44
2022-07-26T12:41:37.725Z,36.24
2022-07-26T12:44:08.785Z,36.36
2022-07-26T12:46:37.290Z,36.58
2022-07-26T12:49:05.875Z,36.77
2022-07-26T12:51:35.216Z,36.82
2022-07-26T12:54:06.449Z,36.93
2022-07-26T12:56:35.163Z,37.04
2022-07-26T12:59:04.530Z,37.29
2022-07-26T13:01:32.931Z,37.55
2022-07-26T13:04:01.438Z,37.77
2022-07-26T13:06:33.116Z,37.70
2022-07-26T13:09:01.249Z,37.85
2022-07-26T13:11:29.567Z,37.69
2022-07-26T13:13:57.899Z,37.61
2022-07-26T13:16:26.103Z,37.53
2022-07-26T13:19:06.111Z,37.58
2022-07-26T13:21:41.485Z,37.62
2022-07-26T13:24:10.846Z,37.50
2022-07-26T13:26:41.071Z,37.37
2022-07-26T13:29:09.614Z,37.17
2022-07-26T13:31:38.197Z,37.28
2022-07-26T13:34:06.704Z,37.23
2022-07-26T13:36:35.128Z,37.61
2022-07-26T13:39:04.336Z,37.54
2022-07-26T13:41:32.340Z,37.66
2022-07-26T13:44:04.197Z,37.73
2022-07-26T13:46:33.583Z,37.01
2022-07-26T13:49:04.175Z,37.30
2022-07-26T13:51:58.624Z,37.25
2022-07-26T13:54:32.512Z,37.69
2022-07-26T13:57:02.133Z,37.94
2022-07-26T13:59:30.982Z,37.62
2022-07-26T14:01:59.276Z,37.70
2022-07-26T14:04:29.042Z,37.69
2022-07-26T14:06:57.401Z,37.86
2022-07-26T14:09:25.803Z,37.77
2022-07-26T14:11:53.983Z,36.93
2022-07-26T14:14:25.812Z,37.07
2022-07-26T14:16:54.096Z,36.56
2022-07-26T14:19:22.243Z,36.54
2022-07-26T14:21:59.421Z,36.36
2022-07-26T14:24:29.059Z,36.42
2022-07-26T14:26:59.501Z,36.45
2022-07-26T14:29:28.627Z,36.62
2022-07-26T14:31:59.557Z,36.35
2022-07-26T14:34:28.819Z,36.44
2022-07-26T14:36:57.533Z,36.54
2022-07-26T14:39:25.635Z,36.51
2022-07-26T14:41:53.823Z,36.54
2022-07-26T14:44:22.357Z,36.85
2022-07-26T14:46:51.049Z,36.63
2022-07-26T14:49:44.029Z,36.60
2022-07-26T14:52:38.978Z,36.34
2022-07-26T14:55:07.925Z,36.55
2022-07-26T14:57:39.427Z,36.83
2022-07-26T15:00:17.239Z,36.50
2022-07-26T15:02:48.843Z,36.83
2022-07-26T15:05:20.362Z,36.81
2022-07-26T15:07:55.158Z,36.94
2022-07-26T15:10:30.381Z,37.13
2022-07-26T15:13:04.751Z,37.02
2022-07-26T15:15:37.349Z,37.06
2022-07-26T15:18:05.386Z,37.02
2022-07-26T15:20:33.493Z,36.56
2022-07-26T15:23:01.923Z,35.79
2022-07-26T15:25:29.892Z,35.59
2022-07-26T15:27:59.123Z,35.30
2022-07-26T15:30:28.455Z,35.62
2022-07-26T15:32:59.524Z,35.41
2022-07-26T15:35:27.762Z,35.29
2022-07-26T15:37:55.897Z,35.36
2022-07-26T15:40:23.843Z,34.88
2022-07-26T15:42:52.914Z,34.69
2022-07-26T15:45:22.621Z,34.78
2022-07-26T15:47:56.265Z,35.04
2022-07-26T15:50:31.265Z,35.05
2022-07-26T15:53:00.784Z,34.99
2022-07-26T15:55:28.914Z,34.89
2022-07-26T15:57:56.915Z,34.79
2022-07-26T16:00:25.021Z,34.80
2022-07-26T16:02:53.038Z,34.52
2022-07-26T16:05:21.036Z,34.50
2022-07-26T16:07:49.054Z,34.62
2022-07-26T16:10:17.186Z,34.57
2022-07-26T16:12:46.336Z,34.50
2022-07-26T16:15:15.782Z,34.47
2022-07-26T16:17:43.859Z,34.39
2022-07-26T16:20:11.995Z,34.52
2022-07-26T16:22:41.962Z,34.39
2022-07-26T16:25:14.034Z,34.42
2022-07-26T16:27:43.687Z,34.44
2022-07-26T16:30:14.056Z,34.40
2022-07-26T16:32:48.447Z,34.26
2022-07-26T16:35:18.650Z,33.91
2022-07-26T16:37:47.887Z,33.99
2022-07-26T16:40:20.782Z,34.00
2022-07-26T16:42:49.725Z,33.84
2022-07-26T16:45:21.983Z,34.00
2022-07-26T16:48:17.566Z,33.73
2022-07-26T16:50:45.868Z,33.53
2022-07-26T16:53:14.004Z,33.68
2022-07-26T16:55:43.470Z,33.75
2022-07-26T16:58:12.070Z,33.53
2022-07-26T17:00:40.555Z,33.51
2022-07-26T17:03:08.539Z,33.56
2022-07-26T17:05:36.585Z,33.55
2022-07-26T17:08:05.259Z,33.57
2022-07-26T17:10:33.359Z,33.55
2022-07-26T17:13:01.599Z,33.50
2022-07-26T17:15:29.684Z,33.40
2022-07-26T17:17:57.859Z,33.36
2022-07-26T17:20:28.191Z,33.16
2022-07-26T17:22:56.172Z,33.09
2022-07-26T17:25:24.759Z,33.09
2022-07-26T17:27:53.424Z,33.08
2022-07-26T17:30:21.787Z,32.95
2022-07-26T17:32:50.441Z,33.04
2022-07-26T17:35:47.410Z,32.96
2022-07-26T17:38:17.855Z,32.99
2022-07-26T17:40:46.099Z,33.01
2022-07-26T17:43:15.233Z,32.90
2022-07-26T17:45:43.308Z,32.82
2022-07-26T17:48:11.632Z,32.41
2022-07-26T17:50:39.751Z,32.41
2022-07-26T17:53:07.924Z,32.36
2022-07-26T17:55:36.104Z,32.26
2022-07-26T17:58:04.254Z,32.34
2022-07-26T18:00:32.251Z,32.37
2022-07-26T18:03:00.419Z,32.33
2022-07-26T18:05:34.925Z,32.09
2022-07-26T18:08:04.480Z,32.03
2022-07-26T18:10:32.905Z,32.00
2022-07-26T18:13:00.954Z,31.89
2022-07-26T18:15:30.685Z,31.78
2022-07-26T18:17:59.417Z,31.98
2022-07-26T18:20:28.625Z,31.93
2022-07-26T18:22:56.687Z,31.76
2022-07-26T18:25:24.947Z,31.74
2022-07-26T18:27:53.960Z,31.81
2022-07-26T18:30:22.067Z,31.85
2022-07-26T18:32:50.027Z,31.70
2022-07-26T18:35:19.920Z,31.54
2022-07-26T18:37:48.185Z,31.52
2022-07-26T18:40:17.367Z,31.44
2022-07-26T18:42:45.889Z,31.40
2022-07-26T18:45:14.213Z,31.32
2022-07-26T18:47:42.682Z,31.37
2022-07-26T18:50:12.260Z,31.43
2022-07-26T18:52:45.923Z,31.33
2022-07-26T18:55:14.903Z,31.21
2022-07-26T18:57:44.459Z,31.21
2022-07-26T19:00:17.205Z,31.17
2022-07-26T19:02:46.779Z,31.23
2022-07-26T19:05:16.871Z,31.17
2022-07-26T19:07:45.989Z,31.01
2022-07-26T19:10:14.458Z,30.98
2022-07-26T19:12:45.381Z,31.16
2022-07-26T19:15:16.804Z,31.03
2022-07-26T19:17:45.308Z,31.06
2022-07-26T19:20:14.115Z,30.89
2022-07-26T19:22:44.341Z,30.93
2022-07-26T19:25:15.004Z,30.97
2022-07-26T19:27:44.144Z,30.83
2022-07-26T19:30:12.793Z,30.87
2022-07-26T19:32:40.994Z,30.87
2022-07-26T19:35:09.975Z,30.91
2022-07-26T19:37:37.832Z,31.05
2022-07-26T19:40:06.661Z,30.86
2022-07-26T19:42:34.802Z,30.87
2022-07-26T19:45:03.009Z,30.78
2022-07-26T19:47:31.319Z,30.91
2022-07-26T19:49:59.277Z,30.90
2022-07-26T19:52:27.663Z,30.84
2022-07-26T19:54:57.064Z,30.82
2022-07-26T19:57:27.738Z,30.72
2022-07-26T19:59:56.497Z,30.74
2022-07-26T20:02:25.067Z,30.91
2022-07-26T20:04:55.720Z,30.88
2022-07-26T20:07:25.276Z,30.94
2022-07-26T20:09:54.566Z,30.79
2022-07-26T20:12:23.594Z,30.94
2022-07-26T20:14:54.374Z,30.93
2022-07-26T20:17:23.517Z,30.78
2022-07-26T20:19:53.528Z,30.84
2022-07-26T20:22:24.030Z,30.72
2022-07-26T20:24:58.949Z,30.77
2022-07-26T20:27:28.793Z,30.81
2022-07-26T20:30:00.886Z,30.79
2022-07-26T20:32:30.524Z,30.59
2022-07-26T20:34:58.929Z,30.48
2022-07-26T20:37:27.211Z,30.26
2022-07-26T20:39:58.825Z,30.10
2022-07-26T20:42:29.781Z,29.93
2022-07-26T20:45:01.362Z,29.84
2022-07-26T20:47:30.134Z,29.80
2022-07-26T20:50:02.987Z,29.65
2022-07-26T20:52:31.570Z,29.56
2022-07-26T20:55:00.520Z,29.57
2022-07-26T20:57:28.495Z,29.55
2022-07-26T20:59:56.511Z,29.52
2022-07-26T21:02:25.004Z,29.44
2022-07-26T21:04:53.457Z,29.49
2022-07-26T21:07:21.692Z,29.49
2022-07-26T21:09:50.036Z,29.40
2022-07-26T21:12:19.817Z,29.36
2022-07-26T21:14:51.192Z,29.16
2022-07-26T21:17:19.908Z,29.25
2022-07-26T21:19:48.101Z,29.29
2022-07-26T21:22:16.118Z,29.09
2022-07-26T21:24:44.607Z,29.11
2022-07-26T21:27:14.759Z,29.02
2022-07-26T21:29:42.893Z,29.07
2022-07-26T21:32:11.333Z,29.06
2022-07-26T21:34:39.275Z,29.00
2022-07-26T21:37:07.260Z,29.07
2022-07-26T21:39:36.529Z,29.10
2022-07-26T21:42:04.689Z,29.15
2022-07-26T21:44:33.035Z,29.16
2022-07-26T21:47:01.394Z,29.18
2022-07-26T21:49:32.703Z,29.16
2022-07-26T21:52:00.828Z,29.18
2022-07-26T21:54:31.078Z,29.22
2022-07-26T21:57:07.577Z,29.26
2022-07-26T21:59:36.418Z,29.31
2022-07-26T22:02:09.851Z,29.27
2022-07-26T22:04:40.022Z,29.26
2022-07-26T22:07:13.440Z,29.27
2022-07-26T22:09:42.187Z,29.21
2022-07-26T22:12:12.758Z,29.16
2022-07-26T22:14:41.533Z,29.19
2022-07-26T22:17:10.675Z,29.22
2022-07-26T22:19:39.198Z,29.22
2022-07-26T22:22:07.293Z,29.15
2022-07-26T22:24:35.443Z,29.18
2022-07-26T22:27:03.474Z,29.26
2022-07-26T22:29:39.968Z,29.10
2022-07-26T22:32:08.355Z,29.19
2022-07-26T22:34:36.225Z,29.16
2022-07-26T22:37:04.239Z,29.22
2022-07-26T22:39:32.139Z,29.15
2022-07-26T22:42:16.598Z,29.16
2022-07-26T22:44:44.562Z,29.03
2022-07-26T22:47:12.523Z,29.03
2022-07-26T22:49:44.296Z,29.06
2022-07-26T22:52:14.761Z,29.06
2022-07-26T22:54:44.613Z,29.08
2022-07-26T22:57:13.011Z,29.15
2022-07-26T22:59:41.149Z,29.12
2022-07-26T23:02:09.262Z,29.16
2022-07-26T23:04:37.468Z,29.10
2022-07-26T23:07:05.416Z,29.10
2022-07-26T23:09:33.418Z,29.12
2022-07-26T23:12:05.191Z,29.14
2022-07-26T23:14:35.391Z,29.13
2022-07-26T23:17:04.302Z,29.15
2022-07-26T23:19:32.671Z,29.22
2022-07-26T23:22:00.805Z,29.09
2022-07-26T23:24:28.716Z,29.07
2022-07-26T23:26:56.812Z,29.20
2022-07-26T23:29:24.848Z,29.29
2022-07-26T23:31:52.923Z,29.23
2022-07-26T23:34:20.801Z,29.20
2022-07-26T23:36:48.622Z,29.32
2022-07-26T23:39:16.573Z,29.27
2022-07-26T23:41:44.471Z,29.18
2022-07-26T23:44:12.274Z,29.18
2022-07-26T23:46:40.097Z,29.24
2022-07-26T23:49:08.368Z,29.25
2022-07-26T23:51:36.410Z,29.21
2022-07-26T23:54:04.303Z,29.20
2022-07-26T23:56:33.488Z,29.14
2022-07-26T23:59:01.398Z,29.10
